createdAt,value
2022-09-28T00:00:26.291Z,0.064960003
2022-09-28T00:02:41.865Z,0.056840003
2022-09-28T00:03:44.677Z,0.064960003
2022-09-28T00:04:44.337Z,0.081200004
2022-09-28T00:05:40.594Z,0.186760008
2022-09-28T00:06:45.777Z,0.105560005
2022-09-28T00:07:44.509Z,0.064960003
2022-09-28T00:08:40.130Z,0.105560005
2022-09-28T00:09:39.662Z,0.064960003
2022-09-28T00:10:34.387Z,0.073080003
2022-09-28T00:11:43.395Z,0.056840003
2022-09-28T00:12:36.023Z,0.138040006
2022-09-28T00:13:40.214Z,0.105560005
2022-09-28T00:14:39.754Z,0.064960003
2022-09-28T00:15:40.429Z,0.194880009
2022-09-28T00:16:37.879Z,0.056840003
2022-09-28T00:17:38.167Z,0.064960003
2022-09-28T00:18:40.302Z,0.073080003
2022-09-28T00:19:39.406Z,0.129920006
2022-09-28T00:21:36.608Z,-0.024360001
2022-09-28T00:22:36.313Z,0.081200004
2022-09-28T00:23:32.720Z,0.064960003
2022-09-28T00:24:37.473Z,0.081200004
2022-09-28T00:25:30.377Z,0.073080003
2022-09-28T00:26:33.599Z,0.121800005
2022-09-28T00:27:25.837Z,0.113680005
2022-09-28T00:28:28.107Z,0.178640008
2022-09-28T00:29:23.099Z,0.056840003
2022-09-28T00:30:26.903Z,0.089320004
2022-09-28T00:31:19.349Z,0
2022-09-28T00:33:53.111Z,0.048720002
2022-09-28T00:34:51.081Z,0.064960003
2022-09-28T00:35:47.885Z,0.154280007
2022-09-28T00:36:52.723Z,0.097440004
2022-09-28T00:37:52.329Z,0.097440004
2022-09-28T00:38:55.094Z,0.064960003
2022-09-28T00:39:54.434Z,0.138040006
2022-09-28T00:40:50.425Z,0.097440004
2022-09-28T00:41:58.102Z,0.097440004
2022-09-28T00:42:50.798Z,0.048720002
2022-09-28T00:43:52.829Z,0.154280007
2022-09-28T00:44:47.332Z,0.105560005
2022-09-28T00:45:49.781Z,0.056840003
2022-09-28T00:46:51.682Z,0.081200004
2022-09-28T00:47:53.198Z,0.121800005
2022-09-28T00:48:45.745Z,0.040600002
2022-09-28T00:49:45.622Z,0.235480011
2022-09-28T00:51:43.450Z,0.097440004
2022-09-28T00:52:37.631Z,0.073080003
2022-09-28T00:53:39.302Z,0.032480001
2022-09-28T00:54:37.401Z,0.073080003
2022-09-28T00:56:31.157Z,0.073080003
2022-09-28T00:57:32.587Z,0.097440004
2022-09-28T00:58:27.836Z,0.089320004
2022-09-28T00:59:34.163Z,0.081200004
2022-09-28T01:00:29.507Z,0.073080003
2022-09-28T01:01:36.715Z,0.032480001
2022-09-28T01:02:31.397Z,0.056840003
2022-09-28T01:03:30.109Z,0.097440004
2022-09-28T01:04:30.086Z,0.073080003
2022-09-28T01:06:25.855Z,0.121800005
2022-09-28T01:07:20.305Z,0.040600002
2022-09-28T01:08:21.606Z,0.113680005
2022-09-28T01:09:16.147Z,0.081200004
2022-09-28T01:11:54.964Z,0.064960003
2022-09-28T01:12:57.198Z,0.097440004
2022-09-28T01:13:57.197Z,0.064960003
2022-09-28T01:14:52.374Z,0.073080003
2022-09-28T01:16:52.788Z,0.146160007
2022-09-28T01:17:49.039Z,0.073080003
2022-09-28T01:18:52.180Z,0.121800005
2022-09-28T01:20:01.653Z,0.048720002
2022-09-28T01:21:59.489Z,0.064960003
2022-09-28T01:22:53.913Z,0.081200004
2022-09-28T01:24:06.032Z,0.081200004
2022-09-28T01:24:58.353Z,0.21924001
2022-09-28T01:25:59.575Z,0.121800005
2022-09-28T01:26:54.805Z,0.113680005
2022-09-28T01:27:56.756Z,0.113680005
2022-09-28T01:28:54.936Z,0.032480001
2022-09-28T01:29:56.068Z,0.105560005
2022-09-28T01:30:54.102Z,0.064960003
2022-09-28T01:31:56.533Z,0.040600002
2022-09-28T01:32:51.953Z,0.073080003
2022-09-28T01:33:50.571Z,0.073080003
2022-09-28T01:34:50.677Z,0.089320004
2022-09-28T01:36:47.189Z,0.162400007
2022-09-28T01:37:50.448Z,0.048720002
2022-09-28T01:38:51.720Z,0.064960003
2022-09-28T01:39:50.764Z,0.064960003
2022-09-28T01:40:52.122Z,0.097440004
2022-09-28T01:41:47.273Z,0.170520008
2022-09-28T01:42:48.418Z,0.073080003
2022-09-28T01:43:45.152Z,0.129920006
2022-09-28T01:44:48.966Z,0.097440004
2022-09-28T01:46:40.408Z,0.056840003
2022-09-28T01:47:35.098Z,0.064960003
2022-09-28T01:48:37.342Z,0.081200004
2022-09-28T01:49:37.246Z,0.121800005
2022-09-28T01:51:34.125Z,0.024360001
2022-09-28T01:52:30.399Z,0.097440004
2022-09-28T01:53:32.896Z,0.081200004
2022-09-28T01:54:28.336Z,0.146160007
2022-09-28T01:56:38.061Z,0.064960003
2022-09-28T01:57:33.320Z,0.113680005
2022-09-28T01:58:31.453Z,0.040600002
2022-09-28T01:59:34.962Z,0.105560005
2022-09-28T02:01:59.941Z,0.064960003
2022-09-28T02:02:56.843Z,0.032480001
2022-09-28T02:03:56.167Z,0.064960003
2022-09-28T02:04:55.799Z,0.121800005
2022-09-28T02:06:56.693Z,0.089320004
2022-09-28T02:07:56.788Z,0.016240001
2022-09-28T02:08:55.963Z,0.081200004
2022-09-28T02:09:52.304Z,0.089320004
2022-09-28T02:11:55.327Z,0.113680005
2022-09-28T02:12:58.075Z,0.064960003
2022-09-28T02:13:58.416Z,0.097440004
2022-09-28T02:14:54.462Z,0.154280007
2022-09-28T02:17:00.841Z,0.048720002
2022-09-28T02:18:01.612Z,0.073080003
2022-09-28T02:18:56.546Z,0.121800005
2022-09-28T02:19:58.532Z,0.064960003
2022-09-28T02:20:52.974Z,0.048720002
2022-09-28T02:21:52.769Z,0.129920006
2022-09-28T02:22:48.950Z,0.048720002
2022-09-28T02:23:47.535Z,0.129920006
2022-09-28T02:24:47.103Z,0.081200004
2022-09-28T02:25:44.353Z,0.170520008
2022-09-28T02:26:47.175Z,0.00812
2022-09-28T02:27:40.559Z,0.089320004
2022-09-28T02:28:42.602Z,0.064960003
2022-09-28T02:29:38.362Z,0.113680005
2022-09-28T02:31:36.338Z,0.081200004
2022-09-28T02:32:41.605Z,0.056840003
2022-09-28T02:33:37.310Z,0.024360001
2022-09-28T02:34:39.462Z,0.056840003
2022-09-28T02:36:29.915Z,0.073080003
2022-09-28T02:37:29.364Z,0.073080003
2022-09-28T02:41:24.779Z,0.105560005
2022-09-28T02:42:25.416Z,0.146160007
2022-09-28T02:43:21.831Z,0.089320004
2022-09-28T02:44:26.979Z,0.138040006
2022-09-28T02:46:21.492Z,0.113680005
2022-09-28T02:47:20.468Z,0.105560005
2022-09-28T02:48:36.119Z,0.064960003
2022-09-28T02:48:43.013Z,0.064960003
2022-09-28T02:49:00.112Z,0.064960003
2022-09-28T02:49:22.252Z,0.089320004
2022-09-28T02:51:21.584Z,0.081200004
2022-09-28T02:52:22.642Z,0.073080003
2022-09-28T02:53:25.467Z,0.064960003
2022-09-28T02:54:19.007Z,0.105560005
2022-09-28T02:56:18.998Z,0.097440004
2022-09-28T02:57:18.738Z,0.048720002
2022-09-28T02:58:17.586Z,0.121800005
2022-09-28T02:59:21.495Z,0.064960003
2022-09-28T03:01:23.554Z,0.056840003
2022-09-28T03:02:16.939Z,0.073080003
2022-09-28T03:03:20.111Z,0.138040006
2022-09-28T03:04:18.215Z,0.121800005
2022-09-28T03:06:28.018Z,0.048720002
2022-09-28T03:07:27.602Z,0.097440004
2022-09-28T03:08:30.447Z,0.064960003
2022-09-28T03:09:31.884Z,0.097440004
2022-09-28T03:11:32.238Z,0.081200004
2022-09-28T03:12:28.657Z,0.016240001
2022-09-28T03:13:33.181Z,0.113680005
2022-09-28T03:14:28.589Z,0.081200004
2022-09-28T03:15:32.777Z,0.129920006
2022-09-28T03:16:30.482Z,0.056840003
2022-09-28T03:18:06.679Z,0.138040006
2022-09-28T03:22:09.832Z,0.056840003
2022-09-28T03:23:24.307Z,0.081200004
2022-09-28T03:23:24.771Z,0.081200004
2022-09-28T03:23:30.213Z,0.081200004
2022-09-28T03:24:13.298Z,0.016240001
2022-09-28T03:25:12.054Z,0.097440004
2022-09-28T03:26:08.552Z,0.073080003
2022-09-28T03:27:03.144Z,0.105560005
2022-09-28T03:28:12.349Z,0.081200004
2022-09-28T03:29:07.467Z,0.097440004
2022-09-28T03:30:07.089Z,0.138040006
2022-09-28T03:31:02.125Z,0.138040006
2022-09-28T03:32:02.279Z,0.032480001
2022-09-28T03:32:56.597Z,0.089320004
2022-09-28T03:33:59.522Z,0.056840003
2022-09-28T03:34:53.835Z,0.073080003
2022-09-28T03:35:56.799Z,0.113680005
2022-09-28T03:36:55.728Z,0.056840003
2022-09-28T03:37:58.520Z,0.048720002
2022-09-28T03:38:57.912Z,0.170520008
2022-09-28T03:39:58.146Z,0.016240001
2022-09-28T03:40:52.195Z,0.097440004
2022-09-28T03:41:53.472Z,0.081200004
2022-09-28T03:42:52.171Z,0.048720002
2022-09-28T03:43:46.321Z,0.073080003
2022-09-28T03:44:48.730Z,0.089320004
2022-09-28T03:45:43.165Z,0.121800005
2022-09-28T03:46:45.738Z,0.073080003
2022-09-28T03:47:45.717Z,0.064960003
2022-09-28T03:48:38.436Z,0.056840003
2022-09-28T03:49:39.478Z,0.073080003
2022-09-28T03:51:41.621Z,0.097440004
2022-09-28T03:52:44.030Z,0.081200004
2022-09-28T03:53:37.392Z,0.170520008
2022-09-28T03:54:44.691Z,0.089320004
2022-09-28T03:55:41.607Z,0.073080003
2022-09-28T03:56:33.511Z,0.154280007
2022-09-28T03:57:32.452Z,0.064960003
2022-09-28T03:58:31.500Z,0.105560005
2022-09-28T03:59:31.509Z,0.194880009
2022-09-28T04:01:30.322Z,0.064960003
2022-09-28T04:02:25.183Z,0.121800005
2022-09-28T04:03:21.726Z,0.113680005
2022-09-28T04:04:22.914Z,0.105560005
2022-09-28T04:06:17.553Z,0.064960003
2022-09-28T04:07:10.140Z,0.040600002
2022-09-28T04:08:11.343Z,0.040600002
2022-09-28T04:09:04.880Z,0.048720002
2022-09-28T04:11:43.005Z,0.024360001
2022-09-28T04:11:59.504Z,0.024360001
2022-09-28T04:12:02.364Z,0.024360001
2022-09-28T04:12:37.528Z,0.024360001
2022-09-28T04:13:33.683Z,0.121800005
2022-09-28T04:14:34.030Z,0.129920006
2022-09-28T04:15:29.395Z,0.138040006
2022-09-28T04:16:29.264Z,0.081200004
2022-09-28T04:17:30.493Z,0.089320004
2022-09-28T04:18:25.777Z,0.113680005
2022-09-28T04:19:30.274Z,0.146160007
2022-09-28T04:20:23.158Z,0.024360001
2022-09-28T04:21:31.590Z,0.040600002
2022-09-28T04:22:24.178Z,0.089320004
2022-09-28T04:23:23.484Z,0.186760008
2022-09-28T04:24:19.570Z,0.016240001
2022-09-28T04:26:14.093Z,0.081200004
2022-09-28T04:27:15.949Z,0.073080003
2022-09-28T04:28:17.639Z,0.105560005
2022-09-28T04:29:13.952Z,0.097440004
2022-09-28T04:31:14.880Z,0.105560005
2022-09-28T04:32:10.126Z,0.121800005
2022-09-28T04:33:10.752Z,0.048720002
2022-09-28T04:34:05.082Z,0.081200004
2022-09-28T04:35:04.886Z,0.113680005
2022-09-28T04:36:00.250Z,0.162400007
2022-09-28T04:37:02.703Z,0.089320004
2022-09-28T04:37:55.251Z,0.081200004
2022-09-28T04:38:56.811Z,0.129920006
2022-09-28T04:39:52.831Z,0.040600002
2022-09-28T04:40:58.850Z,0.138040006
2022-09-28T04:41:52.634Z,0.121800005
2022-09-28T04:44:36.072Z,0.162400007
2022-09-28T04:45:34.229Z,0
2022-09-28T04:46:35.353Z,0.073080003
2022-09-28T04:47:31.707Z,0.073080003
2022-09-28T04:48:33.468Z,0.121800005
2022-09-28T04:49:27.437Z,0.040600002
2022-09-28T04:50:26.343Z,0.073080003
2022-09-28T04:51:21.588Z,0.121800005
2022-09-28T04:52:23.208Z,0.097440004
2022-09-28T04:53:19.534Z,0.024360001
2022-09-28T04:54:33.509Z,0.024360001
2022-09-28T04:55:26.135Z,0.097440004
2022-09-28T04:56:22.915Z,0.121800005
2022-09-28T04:57:23.150Z,0.105560005
2022-09-28T04:58:17.399Z,0.089320004
2022-09-28T04:59:23.841Z,0.073080003
2022-09-28T05:01:21.804Z,0.105560005
2022-09-28T05:02:17.480Z,0.040600002
2022-09-28T05:03:22.315Z,0.081200004
2022-09-28T05:04:25.764Z,0.032480001
2022-09-28T05:05:23.162Z,0.129920006
2022-09-28T05:06:18.354Z,0.097440004
2022-09-28T05:07:17.798Z,0.121800005
2022-09-28T05:08:15.878Z,0.032480001
2022-09-28T05:09:17.629Z,0.146160007
2022-09-28T05:10:11.866Z,0.162400007
2022-09-28T05:11:09.141Z,0.129920006
2022-09-28T05:12:08.148Z,0.129920006
2022-09-28T05:13:06.444Z,0.081200004
2022-09-28T05:14:08.199Z,0.097440004
2022-09-28T05:15:01.658Z,0.121800005
2022-09-28T05:16:05.457Z,0.064960003
2022-09-28T05:16:59.341Z,0.113680005
2022-09-28T05:17:55.375Z,0.048720002
2022-09-28T05:18:59.214Z,0.048720002
2022-09-28T05:19:56.405Z,0.146160007
2022-09-28T05:22:28.836Z,0.162400007
2022-09-28T05:23:34.277Z,0.064960003
2022-09-28T05:24:34.966Z,0.073080003
2022-09-28T05:26:41.144Z,0.105560005
2022-09-28T05:27:42.540Z,0.138040006
2022-09-28T05:28:42.781Z,0.129920006
2022-09-28T05:29:44.141Z,0.056840003
2022-09-28T05:30:42.450Z,0.105560005
2022-09-28T05:31:45.132Z,0.154280007
2022-09-28T05:32:43.250Z,0.089320004
2022-09-28T05:33:45.882Z,0.211120009
2022-09-28T05:34:42.467Z,0.105560005
2022-09-28T05:35:53.314Z,0.121800005
2022-09-28T05:35:55.937Z,0.121800005
2022-09-28T05:36:47.346Z,0.121800005
2022-09-28T05:37:51.603Z,0.138040006
2022-09-28T05:38:57.134Z,0.154280007
2022-09-28T05:39:55.075Z,0.203000009
2022-09-28T05:41:55.082Z,0.186760008
2022-09-28T05:42:56.452Z,0.113680005
2022-09-28T05:43:55.190Z,0.097440004
2022-09-28T05:44:58.741Z,0.129920006
2022-09-28T05:46:55.216Z,0.146160007
2022-09-28T05:47:55.525Z,0.154280007
2022-09-28T05:48:55.277Z,0.170520008
2022-09-28T05:50:00.512Z,0.113680005
2022-09-28T05:51:55.366Z,0.194880009
2022-09-28T05:54:24.251Z,0.243600011
2022-09-28T05:56:26.895Z,0.308560014
2022-09-28T05:57:24.964Z,0.178640008
2022-09-28T05:58:27.320Z,0.178640008
2022-09-28T05:59:30.094Z,0.235480011
2022-09-28T06:01:31.457Z,0.203000009
2022-09-28T06:02:30.298Z,0.251720011
2022-09-28T06:03:31.446Z,0.235480011
2022-09-28T06:04:29.422Z,0.089320004
2022-09-28T06:06:31.508Z,0.081200004
2022-09-28T06:07:33.634Z,0.308560014
2022-09-28T06:08:32.748Z,0.235480011
2022-09-28T06:09:32.619Z,0.089320004
2022-09-28T06:11:35.158Z,0.203000009
2022-09-28T06:12:31.538Z,0.203000009
2022-09-28T06:13:34.916Z,0.170520008
2022-09-28T06:14:29.511Z,0.267960012
2022-09-28T06:15:42.081Z,0.194880009
2022-09-28T06:16:40.486Z,0.170520008
2022-09-28T06:16:43.934Z,0.170520008
2022-09-28T06:17:38.761Z,0.138040006
2022-09-28T06:18:41.183Z,0.105560005
2022-09-28T06:19:42.066Z,0.194880009
2022-09-28T06:21:46.293Z,0.251720011
2022-09-28T06:24:13.474Z,0.146160007
2022-09-28T06:25:12.021Z,0.194880009
2022-09-28T06:26:12.819Z,0.146160007
2022-09-28T06:27:11.795Z,0.105560005
2022-09-28T06:28:12.419Z,0.105560005
2022-09-28T06:29:16.005Z,0.081200004
2022-09-28T06:29:19.636Z,0.081200004
2022-09-28T06:30:12.052Z,0.22736001
2022-09-28T06:32:14.400Z,0.129920006
2022-09-28T06:33:07.170Z,0.194880009
2022-09-28T06:34:09.061Z,0.235480011
2022-09-28T06:35:01.559Z,0.105560005
2022-09-28T06:36:59.590Z,0.138040006
2022-09-28T06:37:58.995Z,0.186760008
2022-09-28T06:38:58.134Z,0.162400007
2022-09-28T06:39:52.465Z,0.194880009
2022-09-28T06:41:49.738Z,0.235480011
2022-09-28T06:42:48.086Z,0.146160007
2022-09-28T06:43:43.784Z,0.154280007
2022-09-28T06:44:50.629Z,0.203000009
2022-09-28T06:46:46.669Z,0.324800014
2022-09-28T06:47:41.447Z,0.276080012
2022-09-28T06:48:39.189Z,0.235480011
2022-09-28T06:49:33.602Z,0.292320013
2022-09-28T06:51:29.075Z,0.332920015
2022-09-28T06:52:30.742Z,0.251720011
2022-09-28T06:53:30.826Z,0.235480011
2022-09-28T06:54:31.096Z,0.138040006
2022-09-28T06:55:22.912Z,0.138040006
2022-09-28T06:56:30.603Z,0.292320013
2022-09-28T06:56:32.995Z,0.292320013
2022-09-28T06:57:25.809Z,0.235480011
2022-09-28T06:58:20.206Z,0.251720011
2022-09-28T06:59:24.006Z,0.186760008
2022-09-28T07:01:21.273Z,0.186760008
2022-09-28T07:02:13.154Z,0.186760008
2022-09-28T07:03:11.449Z,0.097440004
2022-09-28T07:04:10.297Z,0.267960012
2022-09-28T07:05:05.996Z,0.178640008
2022-09-28T07:07:31.608Z,0.22736001
2022-09-28T07:08:29.711Z,0.211120009
2022-09-28T07:09:33.024Z,0.21924001
2022-09-28T07:09:35.880Z,0.21924001
2022-09-28T07:11:28.603Z,0.300440013
2022-09-28T07:12:23.772Z,0.170520008
2022-09-28T07:13:47.044Z,0.194880009
2022-09-28T07:13:48.415Z,0.194880009
2022-09-28T07:13:49.688Z,0.194880009
2022-09-28T07:14:43.085Z,0.146160007
2022-09-28T07:14:46.060Z,0.146160007
2022-09-28T07:14:46.842Z,0.146160007
2022-09-28T07:16:17.042Z,0.341040015
2022-09-28T07:17:17.809Z,0.276080012
2022-09-28T07:18:13.200Z,0.276080012
2022-09-28T07:19:13.900Z,0.22736001
2022-09-28T07:20:18.125Z,0.267960012
2022-09-28T07:20:19.130Z,0.267960012
2022-09-28T07:20:19.729Z,0.267960012
2022-09-28T07:21:17.541Z,0.251720011
2022-09-28T07:21:26.669Z,0.251720011
2022-09-28T07:21:28.607Z,0.251720011
2022-09-28T07:22:10.038Z,0.203000009
2022-09-28T07:23:18.647Z,0.203000009
2022-09-28T07:23:19.034Z,0.203000009
2022-09-28T07:23:19.670Z,0.203000009
2022-09-28T07:24:07.951Z,0.341040015
2022-09-28T07:25:09.566Z,0.292320013
2022-09-28T07:27:05.880Z,0.600880027
2022-09-28T07:28:01.980Z,0.324800014
2022-09-28T07:29:01.149Z,0.267960012
2022-09-28T07:29:59.482Z,0.44660002
2022-09-28T07:31:55.801Z,0.373520017
2022-09-28T07:32:50.992Z,0.430360019
2022-09-28T07:33:48.757Z,0.43848002
2022-09-28T07:34:47.510Z,0.430360019
2022-09-28T07:36:43.706Z,0.341040015
2022-09-28T07:37:36.249Z,0.243600011
2022-09-28T07:38:42.032Z,0.22736001
2022-09-28T07:39:34.514Z,0.308560014
2022-09-28T07:41:29.488Z,0.308560014
2022-09-28T07:42:30.663Z,0.479080021
2022-09-28T07:43:22.895Z,0.406000018
2022-09-28T07:44:20.042Z,0.479080021
2022-09-28T07:46:19.497Z,0.633360028
2022-09-28T07:47:18.989Z,0.600880027
2022-09-28T07:48:13.809Z,0.544040024
2022-09-28T07:49:47.805Z,0.389760017
2022-09-28T07:52:50.120Z,0.324800014
2022-09-28T07:53:53.535Z,0.300440013
2022-09-28T07:54:48.136Z,0.503440022
2022-09-28T07:56:41.907Z,0.373520017
2022-09-28T07:57:41.248Z,0.44660002
2022-09-28T07:58:36.369Z,0.365400016
2022-09-28T07:59:34.769Z,0.324800014
2022-09-28T08:01:28.147Z,0.316680014
2022-09-28T08:02:22.686Z,0.422240019
2022-09-28T08:03:19.255Z,0.495320022
2022-09-28T08:04:18.477Z,0.66584003
2022-09-28T08:05:13.754Z,0.584640026
2022-09-28T08:06:10.292Z,0.267960012
2022-09-28T08:07:08.648Z,0.373520017
2022-09-28T08:08:04.636Z,0.316680014
2022-09-28T08:09:07.418Z,0.365400016
2022-09-28T08:10:00.025Z,0.316680014
2022-09-28T08:11:01.492Z,0.487200022
2022-09-28T08:11:53.336Z,0.535920024
2022-09-28T08:12:54.636Z,0.332920015
2022-09-28T08:13:48.849Z,0.584640026
2022-09-28T08:14:46.900Z,0.576520026
2022-09-28T08:16:41.032Z,0.560280025
2022-09-28T08:17:42.917Z,0.722680032
2022-09-28T08:18:35.514Z,0.787640035
2022-09-28T08:19:38.625Z,0.617120028
2022-09-28T08:21:33.308Z,0.519680023
2022-09-28T08:23:56.647Z,0.552160025
2022-09-28T08:24:54.183Z,0.771400034
2022-09-28T08:26:47.846Z,0.771400034
2022-09-28T08:27:48.310Z,1.055600047
2022-09-28T08:28:43.589Z,1.136800051
2022-09-28T08:29:45.480Z,1.063719988
2022-09-28T08:30:38.120Z,1.258599997
2022-09-28T08:31:38.187Z,1.250480056
2022-09-28T08:32:33.444Z,1.494080067
2022-09-28T08:33:32.865Z,1.607760072
2022-09-28T08:34:28.479Z,1.956920147
2022-09-28T08:35:28.001Z,1.688960075
2022-09-28T08:36:25.153Z,1.80264008
2022-09-28T08:37:24.750Z,1.494080067
2022-09-28T08:38:20.101Z,1.518440008
2022-09-28T08:39:19.669Z,1.599640131
2022-09-28T08:40:14.624Z,1.258599997
2022-09-28T08:42:09.716Z,1.404760122
2022-09-28T08:43:11.588Z,1.136800051
2022-09-28T08:44:04.275Z,1.502200127
2022-09-28T08:45:06.397Z,1.867600083
2022-09-28T08:45:58.969Z,1.737680078
2022-09-28T08:46:56.202Z,1.356040001
2022-09-28T08:47:56.285Z,1.201760054
2022-09-28T08:49:06.876Z,1.079960108
2022-09-28T08:49:20.516Z,1.079960108
2022-09-28T08:49:23.799Z,1.079960108
2022-09-28T08:49:52.399Z,1.526560068
2022-09-28T08:51:28.355Z,1.201760054
2022-09-28T08:52:20.977Z,1.364160061
2022-09-28T08:53:23.464Z,1.258599997
2022-09-28T08:54:17.336Z,0.88508004
2022-09-28T08:55:55.571Z,1.274840117
2022-09-28T08:56:50.853Z,1.258599997
2022-09-28T08:58:25.300Z,1.274840117
2022-09-28T09:00:01.032Z,1.55092001
2022-09-28T09:00:58.059Z,1.445360065
2022-09-28T09:01:58.586Z,1.380400062
2022-09-28T09:03:52.542Z,0.032480001
2022-09-28T09:04:31.722Z,1.526560068
2022-09-28T09:05:29.735Z,1.534680128
2022-09-28T09:06:29.375Z,1.534680128
2022-09-28T09:07:24.082Z,1.77828002
2022-09-28T09:08:24.763Z,2.492840052
2022-09-28T09:09:19.929Z,2.395400047
2022-09-28T09:10:19.747Z,1.908200026
2022-09-28T09:12:14.071Z,1.461600065
2022-09-28T09:13:09.268Z,2.03000021
2022-09-28T09:14:08.830Z,2.614640236
2022-09-28T09:15:04.047Z,3.061240196
2022-09-28T09:16:04.071Z,4.790800095
2022-09-28T09:17:00.639Z,4.993800163
2022-09-28T09:18:58.996Z,4.133080006
2022-09-28T09:19:56.346Z,2.728320122
2022-09-28T09:21:50.902Z,1.640240073
2022-09-28T09:22:53.544Z,2.168040037
2022-09-28T09:23:46.062Z,1.323559999
2022-09-28T09:24:47.907Z,0.909440041
2022-09-28T09:26:42.529Z,1.047480106
2022-09-28T09:27:35.057Z,1.331680059
2022-09-28T09:28:37.232Z,1.323559999
2022-09-28T09:29:29.855Z,1.989400148
2022-09-28T09:31:25.473Z,4.376680374
2022-09-28T09:32:25.888Z,6.739600182
2022-09-28T09:33:22.228Z,6.617800236
2022-09-28T09:34:21.944Z,3.361680031
2022-09-28T09:35:17.776Z,2.647119999
2022-09-28T09:37:12.370Z,3.272360086
2022-09-28T09:38:12.287Z,2.639000177
2022-09-28T09:39:07.834Z,2.159920216
2022-09-28T09:40:46.475Z,-0.024360001
2022-09-28T09:41:25.868Z,3.824520111
2022-09-28T09:42:23.647Z,3.507840157
2022-09-28T09:43:27.965Z,6.154960155
2022-09-28T09:43:31.600Z,6.154960155
2022-09-28T09:44:23.063Z,7.722120285
2022-09-28T09:46:19.865Z,23.39372063
2022-09-28T09:47:22.715Z,23.37748146
2022-09-28T09:48:20.750Z,25.51304054
2022-09-28T09:49:23.657Z,20.76284027
2022-09-28T09:50:22.626Z,19.04952049
2022-09-28T09:51:21.012Z,7.462280273
2022-09-28T09:52:24.284Z,4.189920425
2022-09-28T09:53:18.008Z,3.158680201
2022-09-28T09:54:18.140Z,2.858240128
2022-09-28T09:55:13.892Z,3.288600206
2022-09-28T09:57:11.042Z,6.01692009
2022-09-28T09:58:10.295Z,6.02504015
2022-09-28T09:59:13.506Z,11.26244068
2022-09-28T10:00:08.954Z,16.25624084
2022-09-28T10:01:13.256Z,10.31240082
2022-09-28T10:02:11.659Z,14.61600113
2022-09-28T10:03:10.874Z,17.21440125
2022-09-28T10:04:08.077Z,11.76588058
2022-09-28T10:05:12.728Z,10.62096024
2022-09-28T10:06:07.631Z,11.92828083
2022-09-28T10:07:06.723Z,8.290520668
2022-09-28T10:08:06.770Z,15.14380074
2022-09-28T10:09:08.661Z,8.850800514
2022-09-28T10:10:05.939Z,4.271120071
2022-09-28T10:12:02.486Z,3.012520075
2022-09-28T10:13:55.734Z,-0.064960003
2022-09-28T10:14:35.450Z,2.444120169
2022-09-28T10:16:33.446Z,2.46848011
2022-09-28T10:17:29.549Z,2.200520039
2022-09-28T10:18:28.526Z,3.678360224
2022-09-28T10:19:26.087Z,2.630880117
2022-09-28T10:21:26.756Z,4.279240131
2022-09-28T10:22:19.412Z,4.677120209
2022-09-28T10:23:15.371Z,2.866360188
2022-09-28T10:24:14.711Z,3.174920082
2022-09-28T10:25:10.071Z,3.231760025
2022-09-28T10:27:05.058Z,2.947560072
2022-09-28T10:28:04.873Z,3.093720198
2022-09-28T10:29:03.734Z,3.572800159
2022-09-28T10:29:59.050Z,2.817640066
2022-09-28T10:31:53.210Z,2.712080002
2022-09-28T10:32:53.284Z,4.522840023
2022-09-28T10:33:49.556Z,6.439160347
2022-09-28T10:34:50.976Z,5.740840435
2022-09-28T10:35:47.441Z,4.384799957
2022-09-28T10:36:43.055Z,3.954440117
2022-09-28T10:37:43.464Z,4.06000042
2022-09-28T10:38:38.797Z,3.751440048
2022-09-28T10:39:36.258Z,3.199280262
2022-09-28T10:41:31.185Z,3.207400084
2022-09-28T10:42:28.668Z,3.832640171
2022-09-28T10:43:28.909Z,4.604040146
2022-09-28T10:44:24.262Z,4.514719963
2022-09-28T10:46:02.383Z,-0.064960003
2022-09-28T10:46:43.079Z,4.50660038
2022-09-28T10:47:42.009Z,2.92320013
2022-09-28T10:48:41.988Z,3.028760195
2022-09-28T10:49:46.854Z,2.590280056
2022-09-28T10:51:36.297Z,2.533440113
2022-09-28T10:52:31.789Z,2.379160166
2022-09-28T10:53:34.818Z,2.574040174
2022-09-28T10:54:28.325Z,3.548440218
2022-09-28T10:56:25.073Z,4.815160275
2022-09-28T10:57:25.827Z,5.172440052
2022-09-28T10:58:22.006Z,4.733960152
2022-09-28T10:59:20.515Z,4.790800095
2022-09-28T11:00:21.553Z,4.441640377
2022-09-28T11:01:18.653Z,5.253640175
2022-09-28T11:02:21.700Z,5.570320129
2022-09-28T11:03:21.233Z,6.04940033
2022-09-28T11:04:19.736Z,5.521600246
2022-09-28T11:05:15.185Z,4.888240337
2022-09-28T11:07:15.343Z,3.881360054
2022-09-28T11:08:11.775Z,3.361680031
2022-09-28T11:09:07.770Z,3.491600037
2022-09-28T11:10:12.523Z,3.532200098
2022-09-28T11:11:50.860Z,-0.081200004
2022-09-28T11:12:30.999Z,3.921960115
2022-09-28T11:13:31.552Z,3.80828023
2022-09-28T11:14:41.296Z,3.223640203
2022-09-28T11:16:27.585Z,2.159920216
2022-09-28T11:17:22.380Z,1.307320118
2022-09-28T11:18:22.775Z,1.226119995
2022-09-28T11:19:19.167Z,1.063719988
2022-09-28T11:20:26.803Z,1.006880045
2022-09-28T11:20:28.192Z,1.006880045
2022-09-28T11:22:14.080Z,0.730800033
2022-09-28T11:23:12.699Z,0.820120037
2022-09-28T11:24:09.652Z,0.966280043
2022-09-28T11:25:08.553Z,1.006880045
2022-09-28T11:26:05.896Z,1.136800051
2022-09-28T11:27:00.550Z,1.956920147
2022-09-28T11:28:00.274Z,2.168040037
2022-09-28T11:28:55.531Z,2.541560173
2022-09-28T11:29:55.344Z,2.752680063
2022-09-28T11:31:52.933Z,1.924440145
2022-09-28T11:32:45.488Z,2.216760159
2022-09-28T11:33:44.857Z,2.419760227
2022-09-28T11:34:58.034Z,2.760800123
2022-09-28T11:34:58.626Z,2.760800123
2022-09-28T11:34:58.641Z,2.760800123
2022-09-28T11:36:37.943Z,3.004400253
2022-09-28T11:37:33.178Z,3.069360256
2022-09-28T11:38:32.662Z,2.728320122
2022-09-28T11:39:27.989Z,2.785160065
2022-09-28T11:41:22.685Z,1.956920147
2022-09-28T11:42:21.829Z,1.940680027
2022-09-28T11:43:16.901Z,2.47660017
2022-09-28T11:44:18.824Z,2.265480042
2022-09-28T11:45:11.049Z,2.119320154
2022-09-28T11:47:11.426Z,2.289840221
2022-09-28T11:48:04.077Z,2.257359982
2022-09-28T11:49:07.262Z,1.981280088
2022-09-28T11:49:59.609Z,2.387279987
2022-09-28T11:51:54.417Z,2.500960112
2022-09-28T11:52:53.764Z,2.208640099
2022-09-28T11:53:48.248Z,1.445360065
2022-09-28T11:54:47.566Z,1.502200127
2022-09-28T11:55:42.282Z,1.412880063
2022-09-28T11:58:17.664Z,1.226119995